Time;durP1;ratioP1;P1;durP2;ratioP2;P2;SDS_P1;SDS_P2;PMS_P1;PMS_P2;Temp;Humidity;BMP_temperature;BMP_pressure;BME280_temperature;BME280_humidity;BME280_pressure;Samples;Min_cycle;Max_cycle;Signal;HPM_P1;HPM_P2
2022/11/10 00:02:23;;;;;;;;;;;;;;;;;;5010867;28;8696;-85
2022/11/10 00:04:49;;;;;;;;;;;;;;;;;;5010856;28;7083;-85
2022/11/10 00:07:14;;;;;;;;;;;;;;;;;;5011000;28;8508;-85
2022/11/10 00:09:40;;;;;;;;;;;;;;;;;;5010654;28;8509;-85
2022/11/10 00:12:05;;;;;;;;;;;;;;;;;;5012504;28;8595;-86
2022/11/10 00:17:15;;;;;;;;;;;;;;;;;;5010502;28;6816;-87
2022/11/10 00:19:40;;;;;;;;;;;;;;;;;;5007298;28;8597;-88
2022/11/10 00:22:06;;;;;;;;;;;;;;;;;;5013195;28;8736;-89
2022/11/10 00:24:31;;;;;;;;;;;;;;;;;;5014440;28;8437;-88
2022/11/10 00:26:57;;;;;;;;;;;;;;;;;;5014038;28;7046;-89
2022/11/10 00:29:22;;;;;;;;;;;;;;;;;;5014444;28;8420;-89
2022/11/10 00:31:48;;;;;;;;;;;;;;;;;;5014455;28;7181;-89
2022/11/10 00:34:14;;;;;;;;;;;;;;;;;;5013671;28;8765;-88
2022/11/10 00:36:41;;;;;;;;;;;;;;;;;;5013824;28;7016;-88
2022/11/10 00:39:07;;;;;;;;;;;;;;;;;;5013601;28;8497;-88
2022/11/10 00:41:32;;;;;;;;;;;;;;;;;;5013582;28;8473;-89
2022/11/10 00:43:59;;;;;;;;;;;;;;;;;;5030557;28;8338;-88
2022/11/10 00:46:24;;;;;;;;;;;;;;;;;;5028826;28;8437;-88
2022/11/10 00:48:50;;;;;;;;;;;;;;;;;;4995628;28;7431;-89
2022/11/10 00:51:23;;;;;;;;;;;;;;;;;;5012750;28;8400;-88
2022/11/10 00:53:50;;;;;;;;;;;;;;;;;;5014333;28;7098;-88
2022/11/10 00:56:16;;;;;;;;;;;;;;;;;;4994101;28;8553;-90
2022/11/10 00:58:41;;;;;;;;;;;;;;;;;;4994861;28;7020;-89
2022/11/10 01:01:08;;;;;;;;;;;;;;;;;;4993825;28;8431;-88
2022/11/10 01:03:34;;;;;;;;;;;;;;;;;;4993941;28;8483;-88
2022/11/10 01:06:10;;;;;;;;;;;;;;;;;;4993831;28;8372;-89
2022/11/10 01:08:36;;;;;;;;;;;;;;;;;;4993860;28;9317;-90
2022/11/10 01:11:03;;;;;;;;;;;;;;;;;;4994271;28;7033;-89
2022/11/10 01:13:29;;;;;;;;;;;;;;;;;;4996290;28;8515;-89
2022/11/10 01:15:55;;;;;;;;;;;;;;;;;;5021960;28;8527;-90
2022/11/10 01:18:20;;;;;;;;;;;;;;;;;;5020979;28;8385;-89
2022/11/10 01:20:50;;;;;;;;;;;;;;;;;;5023986;28;7034;-89
2022/11/10 01:23:15;;;;;;;;;;;;;;;;;;5021795;28;8442;-89
2022/11/10 01:25:41;;;;;;;;;;;;;;;;;;5018275;28;6901;-90
2022/11/10 01:28:06;;;;;;;;;;;;;;;;;;5025672;28;8411;-89
2022/11/10 01:30:32;;;;;;;;;;;;;;;;;;5032679;28;7026;-89
2022/11/10 01:32:57;;;;;;;;;;;;;;;;;;5032956;28;7025;-90
2022/11/10 01:35:23;;;;;;;;;;;;;;;;;;5035529;28;8591;-90
2022/11/10 01:37:51;;;;;;;;;;;;;;;;;;5036806;28;8309;-89
2022/11/10 01:40:17;;;;;;;;;;;;;;;;;;5036685;28;7148;-89
2022/11/10 01:42:51;;;;;;;;;;;;;;;;;;5037381;28;7144;-89
2022/11/10 01:45:19;;;;;;;;;;;;;;;;;;5036554;28;7041;-89
2022/11/10 01:47:45;;;;;;;;;;;;;;;;;;5052949;28;8427;-89
2022/11/10 01:50:10;;;;;;;;;;;;;;;;;;5036548;28;7379;-90
2022/11/10 01:52:36;;;;;;;;;;;;;;;;;;5036616;28;8323;-89
2022/11/10 01:55:01;;;;;;;;;;;;;;;;;;5036563;28;8621;-90
2022/11/10 01:57:27;;;;;;;;;;;;;;;;;;5036714;28;7026;-90
2022/11/10 01:59:53;;;;;;;;;;;;;;;;;;5036233;28;7309;-89
2022/11/10 02:02:25;;;;;;;;;;;;;;;;;;5036163;28;8334;-90
2022/11/10 02:04:51;;;;;;;;;;;;;;;;;;5035428;28;7060;-90
2022/11/10 02:07:18;;;;;;;;;;;;;;;;;;5036024;28;7247;-89
2022/11/10 02:09:44;;;;;;;;;;;;;;;;;;5036336;28;7127;-89
2022/11/10 02:12:11;;;;;;;;;;;;;;;;;;5035946;28;8323;-89
2022/11/10 02:14:37;;;;;;;;;;;;;;;;;;5020309;28;8329;-89
2022/11/10 02:17:03;;;;;;;;;;;;;;;;;;5003460;28;7232;-89
2022/11/10 02:19:28;;;;;;;;;;;;;;;;;;4996913;28;8264;-89
2022/11/10 02:21:54;;;;;;;;;;;;;;;;;;4996251;28;8375;-89
2022/11/10 02:24:19;;;;;;;;;;;;;;;;;;4996305;28;7009;-89
2022/11/10 02:26:50;;;;;;;;;;;;;;;;;;4996369;28;8445;-89
2022/11/10 02:29:15;;;;;;;;;;;;;;;;;;4997289;28;8496;-89
2022/11/10 02:31:41;;;;;;;;;;;;;;;;;;4996739;28;8719;-89
2022/11/10 02:34:06;;;;;;;;;;;;;;;;;;4997031;28;8490;-89
2022/11/10 02:36:32;;;;;;;;;;;;;;;;;;4996046;28;8409;-89
2022/11/10 02:38:58;;;;;;;;;;;;;;;;;;4996565;28;8380;-89
2022/11/10 02:41:23;;;;;;;;;;;;;;;;;;4996514;28;8422;-89
2022/11/10 02:43:50;;;;;;;;;;;;;;;;;;4996289;28;7179;-90
2022/11/10 02:46:15;;;;;;;;;;;;;;;;;;4995763;28;8443;-89
2022/11/10 02:48:41;;;;;;;;;;;;;;;;;;4996660;28;8502;-89
2022/11/10 02:51:06;;;;;;;;;;;;;;;;;;4996296;28;7036;-88
2022/11/10 02:53:32;;;;;;;;;;;;;;;;;;4996018;28;8822;-89
2022/11/10 02:55:58;;;;;;;;;;;;;;;;;;4996176;28;8384;-89
2022/11/10 02:58:23;;;;;;;;;;;;;;;;;;4995857;28;8337;-89
2022/11/10 03:00:49;;;;;;;;;;;;;;;;;;4995424;28;7226;-88
2022/11/10 03:03:14;;;;;;;;;;;;;;;;;;4995539;28;8592;-89
2022/11/10 03:05:40;;;;;;;;;;;;;;;;;;4995657;28;8595;-88
2022/11/10 03:08:05;;;;;;;;;;;;;;;;;;4995742;28;7018;-88
2022/11/10 03:10:31;;;;;;;;;;;;;;;;;;4996108;28;7019;-89
2022/11/10 03:12:58;;;;;;;;;;;;;;;;;;4995987;28;8404;-88
2022/11/10 03:15:23;;;;;;;;;;;;;;;;;;4999046;28;8379;-89
2022/11/10 03:17:49;;;;;;;;;;;;;;;;;;5018292;28;8478;-88
2022/11/10 03:20:15;;;;;;;;;;;;;;;;;;5023515;28;8404;-89
2022/11/10 03:22:40;;;;;;;;;;;;;;;;;;5025211;28;8358;-89
2022/11/10 03:25:07;;;;;;;;;;;;;;;;;;5023922;28;8357;-89
2022/11/10 03:27:32;;;;;;;;;;;;;;;;;;5024109;28;7263;-88
2022/11/10 03:29:58;;;;;;;;;;;;;;;;;;5022439;28;8319;-89
2022/11/10 03:32:23;;;;;;;;;;;;;;;;;;5014905;28;7045;-90
2022/11/10 03:34:49;;;;;;;;;;;;;;;;;;5014519;28;8350;-89
2022/11/10 03:37:14;;;;;;;;;;;;;;;;;;5013763;28;7790;-89
2022/11/10 03:39:40;;;;;;;;;;;;;;;;;;5015256;28;8500;-89
2022/11/10 03:42:05;;;;;;;;;;;;;;;;;;5014590;28;8486;-89
2022/11/10 03:44:30;;;;;;;;;;;;;;;;;;5014564;28;7134;-89
2022/11/10 03:46:56;;;;;;;;;;;;;;;;;;5014935;28;7093;-90
2022/11/10 03:49:21;;;;;;;;;;;;;;;;;;5014589;28;7221;-89
2022/11/10 03:51:47;;;;;;;;;;;;;;;;;;5014716;28;8489;-88
2022/11/10 03:54:12;;;;;;;;;;;;;;;;;;5014419;28;8295;-89
2022/11/10 03:56:38;;;;;;;;;;;;;;;;;;5014415;28;8353;-89
2022/11/10 03:59:03;;;;;;;;;;;;;;;;;;5014099;28;8407;-89
2022/11/10 04:01:29;;;;;;;;;;;;;;;;;;5014527;28;8360;-89
2022/11/10 04:03:55;;;;;;;;;;;;;;;;;;5014220;28;8450;-89
2022/11/10 04:09:05;;;;;;;;;;;;;;;;;;5015725;28;6958;-90
2022/11/10 04:16:59;;;;;;;;;;;;;;;;;;5015153;28;6835;-90
2022/11/10 04:19:25;;;;;;;;;;;;;;;;;;5004551;28;7108;-90
2022/11/10 04:21:51;;;;;;;;;;;;;;;;;;4994379;28;8287;-90
2022/11/10 04:24:17;;;;;;;;;;;;;;;;;;4994228;28;7053;-89
2022/11/10 04:26:43;;;;;;;;;;;;;;;;;;4994636;28;8414;-90
2022/11/10 04:29:10;;;;;;;;;;;;;;;;;;4994181;28;8399;-90
2022/11/10 04:31:37;;;;;;;;;;;;;;;;;;4994537;28;8489;-89
2022/11/10 04:34:04;;;;;;;;;;;;;;;;;;4994674;28;8442;-90
2022/11/10 04:36:31;;;;;;;;;;;;;;;;;;4994825;28;9318;-89
2022/11/10 04:38:57;;;;;;;;;;;;;;;;;;4994311;28;8369;-89
2022/11/10 04:41:24;;;;;;;;;;;;;;;;;;4994785;28;8372;-90
2022/11/10 04:43:50;;;;;;;;;;;;;;;;;;4995125;28;8461;-89
2022/11/10 04:46:45;;;;;;;;;;;;;;;;;;4994453;28;8301;-89
2022/11/10 04:49:10;;;;;;;;;;;;;;;;;;4981717;28;8404;-90
2022/11/10 04:51:37;;;;;;;;;;;;;;;;;;4994077;28;7044;-89
2022/11/10 04:54:04;;;;;;;;;;;;;;;;;;4994357;28;8961;-90
2022/11/10 04:56:30;;;;;;;;;;;;;;;;;;4994496;28;7072;-90
2022/11/10 04:58:56;;;;;;;;;;;;;;;;;;4993734;28;7166;-89
2022/11/10 05:01:24;;;;;;;;;;;;;;;;;;5011016;28;7169;-90
2022/11/10 05:03:50;;;;;;;;;;;;;;;;;;5022341;28;8582;-89
2022/11/10 05:06:20;;;;;;;;;;;;;;;;;;5025115;28;7186;-89
2022/11/10 05:08:46;;;;;;;;;;;;;;;;;;5022597;28;7136;-89
2022/11/10 05:11:13;;;;;;;;;;;;;;;;;;5026342;28;7088;-89
2022/11/10 05:13:39;;;;;;;;;;;;;;;;;;5024209;28;7188;-90
2022/11/10 05:16:05;;;;;;;;;;;;;;;;;;5028992;28;8628;-90
2022/11/10 05:18:31;;;;;;;;;;;;;;;;;;5026809;28;7036;-88
2022/11/10 05:20:57;;;;;;;;;;;;;;;;;;5037329;28;8389;-89
2022/11/10 05:23:37;;;;;;;;;;;;;;;;;;5024478;28;8296;-89
2022/11/10 05:26:06;;;;;;;;;;;;;;;;;;5017569;28;8936;-89
2022/11/10 05:28:32;;;;;;;;;;;;;;;;;;5017268;28;8388;-89
2022/11/10 05:30:58;;;;;;;;;;;;;;;;;;5003046;28;8460;-89
2022/11/10 05:33:23;;;;;;;;;;;;;;;;;;4997447;28;7233;-89
2022/11/10 05:35:50;;;;;;;;;;;;;;;;;;5027349;28;8420;-88
2022/11/10 05:38:16;;;;;;;;;;;;;;;;;;5026088;28;8389;-88
2022/11/10 05:40:41;;;;;;;;;;;;;;;;;;5025981;28;8466;-89
2022/11/10 05:43:09;;;;;;;;;;;;;;;;;;5027508;28;7236;-89
2022/11/10 05:45:35;;;;;;;;;;;;;;;;;;5026130;28;7131;-89
2022/11/10 05:48:01;;;;;;;;;;;;;;;;;;5025865;28;8275;-89
2022/11/10 05:50:27;;;;;;;;;;;;;;;;;;5027100;28;8399;-89
2022/11/10 05:52:54;;;;;;;;;;;;;;;;;;5025613;28;7226;-90
2022/11/10 05:55:21;;;;;;;;;;;;;;;;;;5026052;28;7255;-92
2022/11/10 05:57:48;;;;;;;;;;;;;;;;;;5027228;28;8313;-91
2022/11/10 06:00:15;;;;;;;;;;;;;;;;;;5025528;28;8322;-88
2022/11/10 06:02:42;;;;;;;;;;;;;;;;;;5022293;28;7071;-90
2022/11/10 06:05:07;;;;;;;;;;;;;;;;;;5025370;28;7061;-91
2022/11/10 06:07:33;;;;;;;;;;;;;;;;;;5016688;28;7383;-91
2022/11/10 06:09:58;;;;;;;;;;;;;;;;;;4997172;28;7236;-90
2022/11/10 06:12:24;;;;;;;;;;;;;;;;;;4996564;28;6975;-89
2022/11/10 06:14:52;;;;;;;;;;;;;;;;;;5006924;28;8578;-90
2022/11/10 06:17:18;;;;;;;;;;;;;;;;;;5010480;28;7150;-91
2022/11/10 06:19:44;;;;;;;;;;;;;;;;;;5015699;28;7385;-88
2022/11/10 06:22:10;;;;;;;;;;;;;;;;;;5015634;28;8679;-91
2022/11/10 06:24:35;;;;;;;;;;;;;;;;;;5026030;28;7102;-91
2022/11/10 06:27:01;;;;;;;;;;;;;;;;;;5025376;28;8420;-91
2022/11/10 06:29:26;;;;;;;;;;;;;;;;;;5026333;28;7329;-91
2022/11/10 06:31:52;;;;;;;;;;;;;;;;;;5023739;28;6999;-91
2022/11/10 06:34:17;;;;;;;;;;;;;;;;;;5024173;28;7073;-90
2022/11/10 06:36:42;;;;;;;;;;;;;;;;;;5009160;28;7013;-88
2022/11/10 06:39:08;;;;;;;;;;;;;;;;;;5023092;28;7043;-90
2022/11/10 06:41:33;;;;;;;;;;;;;;;;;;5023860;28;7175;-90
2022/11/10 06:43:59;;;;;;;;;;;;;;;;;;5020935;28;8400;-90
2022/11/10 06:46:25;;;;;;;;;;;;;;;;;;5023494;28;8453;-90
2022/11/10 06:48:50;;;;;;;;;;;;;;;;;;5018022;28;7237;-91
2022/11/10 06:51:16;;;;;;;;;;;;;;;;;;5021678;28;8421;-92
2022/11/10 06:53:42;;;;;;;;;;;;;;;;;;5025547;28;7079;-87
2022/11/10 06:56:07;;;;;;;;;;;;;;;;;;5025350;28;8252;-90
2022/11/10 06:58:33;;;;;;;;;;;;;;;;;;5024790;28;8746;-90
2022/11/10 07:00:59;;;;;;;;;;;;;;;;;;5018064;28;8675;-88
2022/11/10 07:03:25;;;;;;;;;;;;;;;;;;5025787;28;7057;-88
2022/11/10 07:05:50;;;;;;;;;;;;;;;;;;5024678;28;8507;-88
2022/11/10 07:08:16;;;;;;;;;;;;;;;;;;5024543;28;8495;-88
2022/11/10 07:10:42;;;;;;;;;;;;;;;;;;5026061;28;8465;-88
2022/11/10 07:13:08;;;;;;;;;;;;;;;;;;5037026;28;7014;-88
2022/11/10 07:15:34;;;;;;;;;;;;;;;;;;5018122;28;7094;-87
2022/11/10 07:18:04;;;;;;;;;;;;;;;;;;5015729;28;8367;-87
2022/11/10 07:20:30;;;;;;;;;;;;;;;;;;5015596;28;7120;-88
2022/11/10 07:23:01;;;;;;;;;;;;;;;;;;5014994;28;7037;-88
2022/11/10 07:25:27;;;;;;;;;;;;;;;;;;5015092;28;8377;-88
2022/11/10 07:27:54;;;;;;;;;;;;;;;;;;5014771;28;7531;-88
2022/11/10 07:30:19;;;;;;;;;;;;;;;;;;5010253;28;8982;-87
2022/11/10 07:32:44;;;;;;;;;;;;;;;;;;5001765;28;7050;-87
2022/11/10 07:35:10;;;;;;;;;;;;;;;;;;5020349;28;8400;-87
2022/11/10 07:37:35;;;;;;;;;;;;;;;;;;5012273;28;7036;-87
2022/11/10 07:40:01;;;;;;;;;;;;;;;;;;5002372;28;7031;-88
2022/11/10 07:42:26;;;;;;;;;;;;;;;;;;4996714;28;8453;-87
2022/11/10 07:44:52;;;;;;;;;;;;;;;;;;5005826;28;8809;-88
2022/11/10 07:47:17;;;;;;;;;;;;;;;;;;5014349;28;7066;-79
2022/11/10 07:49:42;;;;;;;;;;;;;;;;;;5014556;28;8429;-87
2022/11/10 07:52:08;;;;;;;;;;;;;;;;;;5014798;28;8494;-88
2022/11/10 07:54:33;;;;;;;;;;;;;;;;;;5014626;28;8452;-88
2022/11/10 07:56:59;;;;;;;;;;;;;;;;;;5015565;28;8337;-88
2022/11/10 07:59:24;;;;;;;;;;;;;;;;;;5014274;28;7064;-88
2022/11/10 08:01:50;;;;;;;;;;;;;;;;;;5014203;28;8426;-89
2022/11/10 08:04:15;;;;;;;;;;;;;;;;;;5014182;28;8485;-88
2022/11/10 08:06:41;;;;;;;;;;;;;;;;;;5015094;28;8583;-88
2022/11/10 08:09:07;;;;;;;;;;;;;;;;;;5013918;28;7072;-88
2022/11/10 08:11:33;;;;;;;;;;;;;;;;;;5014093;28;7585;-88
2022/11/10 08:13:59;;;;;;;;;;;;;;;;;;5014507;28;8369;-88
2022/11/10 08:16:24;;;;;;;;;;;;;;;;;;5014313;28;8736;-89
2022/11/10 08:18:50;;;;;;;;;;;;;;;;;;5013642;28;8438;-88
2022/11/10 08:21:15;;;;;;;;;;;;;;;;;;5014001;28;7162;-88
2022/11/10 08:23:41;;;;;;;;;;;;;;;;;;5014161;28;8443;-88
2022/11/10 08:26:06;;;;;;;;;;;;;;;;;;5013920;28;8714;-88
2022/11/10 08:28:32;;;;;;;;;;;;;;;;;;5013900;28;7259;-88
2022/11/10 08:30:58;;;;;;;;;;;;;;;;;;5014160;28;7165;-88
2022/11/10 08:33:23;;;;;;;;;;;;;;;;;;5013911;28;7245;-88
2022/11/10 08:35:50;;;;;;;;;;;;;;;;;;5014604;28;8390;-88
2022/11/10 08:38:18;;;;;;;;;;;;;;;;;;5013930;28;8982;-88
2022/11/10 08:40:44;;;;;;;;;;;;;;;;;;5014340;28;7044;-88
2022/11/10 08:43:11;;;;;;;;;;;;;;;;;;5013280;28;8788;-88
2022/11/10 08:45:39;;;;;;;;;;;;;;;;;;5013887;28;8904;-88
2022/11/10 08:48:06;;;;;;;;;;;;;;;;;;5013637;28;8443;-89
2022/11/10 08:50:33;;;;;;;;;;;;;;;;;;5013786;28;7147;-88
2022/11/10 08:53:07;;;;;;;;;;;;;;;;;;5014512;28;8577;-89
2022/11/10 08:55:32;;;;;;;;;;;;;;;;;;5013845;28;7421;-89
2022/11/10 08:57:59;;;;;;;;;;;;;;;;;;5013597;28;8419;-89
2022/11/10 09:00:25;;;;;;;;;;;;;;;;;;5013690;28;7100;-89
2022/11/10 09:02:50;;;;;;;;;;;;;;;;;;5013209;28;8394;-89
2022/11/10 09:05:16;;;;;;;;;;;;;;;;;;5013970;28;7285;-89
2022/11/10 09:07:46;;;;;;;;;;;;;;;;;;5014096;28;8305;-89
2022/11/10 09:10:12;;;;;;;;;;;;;;;;;;5013463;28;7262;-89
2022/11/10 09:12:39;;;;;;;;;;;;;;;;;;5013398;28;7271;-89
2022/11/10 09:15:05;;;;;;;;;;;;;;;;;;5013948;28;8360;-89
2022/11/10 09:17:31;;;;;;;;;;;;;;;;;;5013730;28;8920;-89
2022/11/10 09:19:57;;;;;;;;;;;;;;;;;;5014354;28;7142;-89
2022/11/10 09:22:22;;;;;;;;;;;;;;;;;;5014086;28;7052;-89
2022/11/10 09:24:48;;;;;;;;;;;;;;;;;;5004636;28;7036;-89
2022/11/10 09:27:13;;;;;;;;;;;;;;;;;;5012914;28;7436;-90
2022/11/10 09:29:39;;;;;;;;;;;;;;;;;;5020875;28;7033;-90
2022/11/10 09:32:04;;;;;;;;;;;;;;;;;;5011794;28;8453;-89
2022/11/10 09:34:30;;;;;;;;;;;;;;;;;;5022603;28;7160;-89
2022/11/10 09:36:56;;;;;;;;;;;;;;;;;;5013453;28;8448;-90
2022/11/10 09:39:21;;;;;;;;;;;;;;;;;;5004320;28;7481;-89
2022/11/10 09:41:47;;;;;;;;;;;;;;;;;;5012896;28;8292;-89
2022/11/10 09:44:21;;;;;;;;;;;;;;;;;;5013197;28;7200;-90
2022/11/10 09:46:51;;;;;;;;;;;;;;;;;;5008177;28;8658;-89
2022/11/10 09:49:36;;;;;;;;;;;;;;;;;;4998482;28;7240;-90
2022/11/10 09:52:03;;;;;;;;;;;;;;;;;;5001022;28;7076;-89
2022/11/10 09:54:45;;;;;;;;;;;;;;;;;;5005723;28;7230;-91
2022/11/10 09:57:14;;;;;;;;;;;;;;;;;;5011235;28;7219;-89
2022/11/10 09:59:41;;;;;;;;;;;;;;;;;;5001625;28;7297;-89
2022/11/10 10:02:27;;;;;;;;;;;;;;;;;;5013157;28;8413;-90
2022/11/10 10:04:55;;;;;;;;;;;;;;;;;;5012965;28;7183;-90
2022/11/10 10:07:30;;;;;;;;;;;;;;;;;;5013577;28;8683;-90
2022/11/10 10:10:14;;;;;;;;;;;;;;;;;;5013198;28;7129;-90
2022/11/10 10:12:49;;;;;;;;;;;;;;;;;;5012633;28;7079;-90
2022/11/10 10:15:23;;;;;;;;;;;;;;;;;;5014653;28;8555;-89
2022/11/10 10:18:16;;;;;;;;;;;;;;;;;;5012636;28;8601;-90
2022/11/10 10:21:06;;;;;;;;;;;;;;;;;;4996814;28;8609;-90
2022/11/10 10:23:34;;;;;;;;;;;;;;;;;;4998519;28;8735;-89
2022/11/10 10:26:00;;;;;;;;;;;;;;;;;;5005672;28;7254;-88
2022/11/10 10:28:36;;;;;;;;;;;;;;;;;;5002326;28;7290;-87
2022/11/10 10:31:11;;;;;;;;;;;;;;;;;;5013541;28;6920;-87
2022/11/10 10:33:37;;;;;;;;;;;;;;;;;;4996422;28;7187;-87
2022/11/10 10:36:07;;;;;;;;;;;;;;;;;;4996485;28;8477;-87
2022/11/10 10:38:37;;;;;;;;;;;;;;;;;;4996162;28;8475;-87
2022/11/10 10:41:12;;;;;;;;;;;;;;;;;;5004839;28;8442;-87
2022/11/10 10:43:40;;;;;;;;;;;;;;;;;;5018479;28;7065;-88
2022/11/10 10:46:10;;;;;;;;;;;;;;;;;;5015947;28;8433;-87
2022/11/10 10:48:36;;;;;;;;;;;;;;;;;;5015767;28;8664;-87
2022/11/10 10:51:01;;;;;;;;;;;;;;;;;;5014697;28;7123;-88
2022/11/10 10:53:27;;;;;;;;;;;;;;;;;;5003493;28;7062;-87
2022/11/10 10:55:59;;;;;;;;;;;;;;;;;;5008501;28;6955;-87
2022/11/10 10:58:27;;;;;;;;;;;;;;;;;;5015608;28;7330;-88
2022/11/10 11:00:58;;;;;;;;;;;;;;;;;;5015504;28;7202;-89
2022/11/10 11:03:26;;;;;;;;;;;;;;;;;;5015941;28;7067;-87
2022/11/10 11:05:59;;;;;;;;;;;;;;;;;;5015790;28;7193;-87
2022/11/10 11:08:25;;;;;;;;;;;;;;;;;;5015435;28;8793;-87
2022/11/10 11:10:51;;;;;;;;;;;;;;;;;;5015186;28;7063;-88
2022/11/10 11:13:25;;;;;;;;;;;;;;;;;;5015577;28;8625;-88
2022/11/10 11:15:59;;;;;;;;;;;;;;;;;;5015328;28;8479;-88
2022/11/10 11:18:26;;;;;;;;;;;;;;;;;;5015086;28;8913;-88
2022/11/10 11:21:07;;;;;;;;;;;;;;;;;;5016977;28;8562;-87
2022/11/10 11:23:41;;;;;;;;;;;;;;;;;;5014905;28;8506;-87
2022/11/10 11:26:15;;;;;;;;;;;;;;;;;;5015494;28;8845;-88
2022/11/10 11:28:44;;;;;;;;;;;;;;;;;;5015229;28;7149;-88
2022/11/10 11:31:19;;;;;;;;;;;;;;;;;;5015282;28;8761;-88
2022/11/10 11:33:50;;;;;;;;;;;;;;;;;;5014860;28;8474;-87
2022/11/10 11:36:15;;;;;;;;;;;;;;;;;;5014926;28;7140;-87
2022/11/10 11:38:41;;;;;;;;;;;;;;;;;;5015169;28;8365;-87
2022/11/10 11:41:09;;;;;;;;;;;;;;;;;;5014996;28;7148;-88
2022/11/10 11:43:38;;;;;;;;;;;;;;;;;;5015129;28;8767;-87
2022/11/10 11:46:03;;;;;;;;;;;;;;;;;;5014589;28;8476;-88
2022/11/10 11:48:29;;;;;;;;;;;;;;;;;;5014699;28;6992;-88
2022/11/10 11:51:04;;;;;;;;;;;;;;;;;;5014698;28;7216;-88
2022/11/10 11:53:48;;;;;;;;;;;;;;;;;;5015133;28;9130;-88
2022/11/10 11:56:26;;;;;;;;;;;;;;;;;;5014842;28;8673;-87
2022/11/10 11:59:10;;;;;;;;;;;;;;;;;;5014481;28;7046;-88
2022/11/10 12:01:54;;;;;;;;;;;;;;;;;;5014545;28;7206;-87
2022/11/10 12:04:38;;;;;;;;;;;;;;;;;;5014231;28;9024;-88
2022/11/10 12:07:09;;;;;;;;;;;;;;;;;;5014459;28;8437;-87
2022/11/10 12:09:42;;;;;;;;;;;;;;;;;;5014123;28;8760;-87
2022/11/10 12:12:08;;;;;;;;;;;;;;;;;;5014134;28;7048;-87
2022/11/10 12:14:52;;;;;;;;;;;;;;;;;;5014554;28;8411;-88
2022/11/10 12:17:17;;;;;;;;;;;;;;;;;;5014254;28;7222;-89
2022/11/10 12:19:51;;;;;;;;;;;;;;;;;;5013564;28;8404;-87
2022/11/10 12:22:16;;;;;;;;;;;;;;;;;;5013447;28;8572;-87
2022/11/10 12:24:45;;;;;;;;;;;;;;;;;;5008217;28;7051;-86
2022/11/10 12:27:15;;;;;;;;;;;;;;;;;;5010403;28;8764;-87
2022/11/10 12:30:19;;;;;;;;;;;;;;;;;;4994385;28;7259;-86
2022/11/10 12:33:10;;;;;;;;;;;;;;;;;;4936050;29;7121;-86
2022/11/10 12:35:40;;;;;;;;;;;;;;;;;;4919422;29;8428;-86
2022/11/10 12:38:11;;;;;;;;;;;;;;;;;;4919410;29;8718;-87
2022/11/10 12:40:38;;;;;;;;;;;;;;;;;;4937458;29;8797;-83
2022/11/10 12:43:08;;;;;;;;;;;;;;;;;;4939187;29;7029;-87
2022/11/10 12:45:40;;;;;;;;;;;;;;;;;;4938804;29;8391;-87
2022/11/10 12:48:10;;;;;;;;;;;;;;;;;;4938804;29;8715;-86
2022/11/10 12:50:44;;;;;;;;;;;;;;;;;;4938939;29;8791;-86
2022/11/10 12:53:10;;;;;;;;;;;;;;;;;;4938751;29;8419;-86
2022/11/10 12:55:41;;;;;;;;;;;;;;;;;;4936284;29;7186;-86
2022/11/10 12:58:12;;;;;;;;;;;;;;;;;;4938306;29;7441;-85
2022/11/10 13:01:03;;;;;;;;;;;;;;;;;;4938120;29;7285;-85
2022/11/10 13:03:32;;;;;;;;;;;;;;;;;;4971370;28;8574;-85
2022/11/10 13:06:02;;;;;;;;;;;;;;;;;;5008047;28;8529;-86
2022/11/10 13:08:40;;;;;;;;;;;;;;;;;;4999672;28;8351;-86
2022/11/10 13:11:20;;;;;;;;;;;;;;;;;;4993952;28;8748;-86
2022/11/10 13:13:45;;;;;;;;;;;;;;;;;;4994066;28;7181;-86
2022/11/10 13:16:30;;;;;;;;;;;;;;;;;;4993648;28;7050;-86
2022/11/10 13:18:56;;;;;;;;;;;;;;;;;;5012058;28;8537;-85
2022/11/10 13:21:40;;;;;;;;;;;;;;;;;;5012406;28;8422;-86
2022/11/10 13:24:19;;;;;;;;;;;;;;;;;;5013028;28;7252;-86
2022/11/10 13:26:44;;;;;;;;;;;;;;;;;;5012689;28;8498;-86
2022/11/10 13:29:33;;;;;;;;;;;;;;;;;;5013507;28;8512;-86
2022/11/10 13:32:14;;;;;;;;;;;;;;;;;;5017126;28;8480;-86
2022/11/10 13:34:40;;;;;;;;;;;;;;;;;;5017097;28;8504;-86
2022/11/10 13:37:24;;;;;;;;;;;;;;;;;;5019035;28;8441;-86
2022/11/10 13:40:09;;;;;;;;;;;;;;;;;;5017376;28;8564;-86
2022/11/10 13:42:35;;;;;;;;;;;;;;;;;;5017010;28;8811;-86
2022/11/10 13:45:19;;;;;;;;;;;;;;;;;;5017333;28;7146;-86
2022/11/10 13:47:54;;;;;;;;;;;;;;;;;;5017521;28;8395;-86
2022/11/10 13:50:20;;;;;;;;;;;;;;;;;;5017685;28;8716;-85
2022/11/10 13:52:57;;;;;;;;;;;;;;;;;;5017314;28;8365;-86
2022/11/10 13:55:32;;;;;;;;;;;;;;;;;;5016698;28;8448;-86
2022/11/10 13:58:00;;;;;;;;;;;;;;;;;;5016635;28;8856;-86
2022/11/10 14:00:28;;;;;;;;;;;;;;;;;;5016605;28;8514;-86
2022/11/10 14:02:56;;;;;;;;;;;;;;;;;;5016304;28;8437;-86
2022/11/10 14:05:27;;;;;;;;;;;;;;;;;;5016090;28;8510;-86
2022/11/10 14:08:00;;;;;;;;;;;;;;;;;;5015057;28;7255;-87
2022/11/10 14:10:36;;;;;;;;;;;;;;;;;;5014015;28;7102;-86
2022/11/10 14:13:09;;;;;;;;;;;;;;;;;;5008539;28;7068;-86
2022/11/10 14:15:41;;;;;;;;;;;;;;;;;;5004913;28;8636;-87
2022/11/10 14:18:28;;;;;;;;;;;;;;;;;;5014797;28;7294;-87
2022/11/10 14:20:55;;;;;;;;;;;;;;;;;;5011134;28;9205;-87
2022/11/10 14:23:36;;;;;;;;;;;;;;;;;;5009756;28;7092;-87
2022/11/10 14:26:04;;;;;;;;;;;;;;;;;;4999206;28;8755;-88
2022/11/10 14:28:32;;;;;;;;;;;;;;;;;;5015749;28;8790;-87
2022/11/10 14:30:58;;;;;;;;;;;;;;;;;;5015665;28;7086;-88
2022/11/10 14:33:25;;;;;;;;;;;;;;;;;;5015927;28;8614;-86
2022/11/10 14:35:56;;;;;;;;;;;;;;;;;;5015782;28;7077;-87
2022/11/10 14:38:27;;;;;;;;;;;;;;;;;;5015858;28;8398;-87
2022/11/10 14:40:55;;;;;;;;;;;;;;;;;;5014460;28;8436;-85
2022/11/10 14:43:24;;;;;;;;;;;;;;;;;;5013872;28;7213;-86
2022/11/10 14:45:51;;;;;;;;;;;;;;;;;;5015763;28;8730;-87
2022/11/10 14:48:18;;;;;;;;;;;;;;;;;;5015462;28;7223;-87
2022/11/10 14:50:44;;;;;;;;;;;;;;;;;;5015949;28;7191;-86
2022/11/10 14:53:28;;;;;;;;;;;;;;;;;;5015950;28;8369;-87
2022/11/10 14:55:55;;;;;;;;;;;;;;;;;;5015968;28;7173;-86
2022/11/10 14:58:41;;;;;;;;;;;;;;;;;;5014781;28;7189;-86
2022/11/10 15:01:22;;;;;;;;;;;;;;;;;;5024223;28;8346;-86
2022/11/10 15:03:48;;;;;;;;;;;;;;;;;;5027290;28;9513;-89
2022/11/10 15:06:14;;;;;;;;;;;;;;;;;;5032061;28;8425;-88
2022/11/10 15:08:41;;;;;;;;;;;;;;;;;;5025812;28;9510;-88
2022/11/10 15:11:06;;;;;;;;;;;;;;;;;;5010895;28;8304;-88
2022/11/10 15:13:35;;;;;;;;;;;;;;;;;;5020596;28;7034;-88
2022/11/10 15:16:19;;;;;;;;;;;;;;;;;;5012375;28;8521;-88
2022/11/10 15:18:47;;;;;;;;;;;;;;;;;;4995175;28;8435;-88
2022/11/10 15:21:15;;;;;;;;;;;;;;;;;;5008095;28;7166;-88
2022/11/10 15:23:43;;;;;;;;;;;;;;;;;;5003972;28;7379;-88
2022/11/10 15:26:20;;;;;;;;;;;;;;;;;;5011806;28;8960;-88
2022/11/10 15:28:47;;;;;;;;;;;;;;;;;;5011795;28;7078;-88
2022/11/10 15:31:22;;;;;;;;;;;;;;;;;;5011806;28;7026;-88
2022/11/10 15:33:52;;;;;;;;;;;;;;;;;;5011628;28;7177;-87
2022/11/10 15:36:17;;;;;;;;;;;;;;;;;;5011565;28;8440;-89
2022/11/10 15:38:43;;;;;;;;;;;;;;;;;;5011815;28;8775;-88
2022/11/10 15:41:10;;;;;;;;;;;;;;;;;;5011654;28;7049;-87
2022/11/10 15:43:37;;;;;;;;;;;;;;;;;;5011615;28;8406;-88
2022/11/10 15:46:10;;;;;;;;;;;;;;;;;;5011444;28;7145;-87
2022/11/10 15:48:38;;;;;;;;;;;;;;;;;;5011650;28;7167;-88
2022/11/10 15:51:03;;;;;;;;;;;;;;;;;;5012030;28;8440;-87
2022/11/10 15:53:36;;;;;;;;;;;;;;;;;;5009919;28;8511;-87
2022/11/10 15:56:06;;;;;;;;;;;;;;;;;;5011440;28;8731;-87
2022/11/10 15:58:32;;;;;;;;;;;;;;;;;;5011926;28;7348;-87
2022/11/10 16:00:58;;;;;;;;;;;;;;;;;;5010819;28;8730;-86
2022/11/10 16:03:24;;;;;;;;;;;;;;;;;;5011587;28;8396;-88
2022/11/10 16:05:49;;;;;;;;;;;;;;;;;;5011053;28;8579;-87
2022/11/10 16:08:20;;;;;;;;;;;;;;;;;;5010810;28;8319;-87
2022/11/10 16:10:51;;;;;;;;;;;;;;;;;;5014156;28;8371;-87
2022/11/10 16:13:22;;;;;;;;;;;;;;;;;;4999460;28;9398;-88
2022/11/10 16:15:48;;;;;;;;;;;;;;;;;;4994357;28;8978;-87
2022/11/10 16:18:16;;;;;;;;;;;;;;;;;;4994160;28;7353;-88
2022/11/10 16:20:41;;;;;;;;;;;;;;;;;;4994837;28;7056;-88
2022/11/10 16:23:07;;;;;;;;;;;;;;;;;;4994861;28;7029;-88
2022/11/10 16:25:33;;;;;;;;;;;;;;;;;;4994244;28;8702;-88
2022/11/10 16:28:02;;;;;;;;;;;;;;;;;;4994422;28;8349;-88
2022/11/10 16:30:28;;;;;;;;;;;;;;;;;;4994916;28;7032;-89
2022/11/10 16:32:54;;;;;;;;;;;;;;;;;;4994646;28;8786;-89
2022/11/10 16:35:20;;;;;;;;;;;;;;;;;;4995259;28;7024;-88
2022/11/10 16:37:46;;;;;;;;;;;;;;;;;;4994924;28;8421;-89
2022/11/10 16:40:11;;;;;;;;;;;;;;;;;;4994915;28;7101;-89
2022/11/10 16:42:40;;;;;;;;;;;;;;;;;;4994580;28;8751;-88
2022/11/10 16:45:12;;;;;;;;;;;;;;;;;;4994827;28;8369;-90
2022/11/10 16:47:38;;;;;;;;;;;;;;;;;;4993868;28;7125;-90
2022/11/10 16:50:06;;;;;;;;;;;;;;;;;;4994397;28;8709;-90
2022/11/10 16:52:32;;;;;;;;;;;;;;;;;;4994548;28;8906;-89
2022/11/10 16:54:58;;;;;;;;;;;;;;;;;;4994762;28;8608;-88
2022/11/10 16:57:23;;;;;;;;;;;;;;;;;;4994236;28;6902;-89
2022/11/10 16:59:49;;;;;;;;;;;;;;;;;;4994411;28;8930;-88
2022/11/10 17:02:26;;;;;;;;;;;;;;;;;;4993953;28;8462;-90
2022/11/10 17:04:53;;;;;;;;;;;;;;;;;;4996259;28;8299;-89
2022/11/10 17:07:22;;;;;;;;;;;;;;;;;;4998294;28;9019;-89
2022/11/10 17:09:48;;;;;;;;;;;;;;;;;;4997934;28;8380;-89
2022/11/10 17:12:14;;;;;;;;;;;;;;;;;;4997961;28;7039;-89
2022/11/10 17:14:40;;;;;;;;;;;;;;;;;;4997870;28;8629;-90
2022/11/10 17:17:13;;;;;;;;;;;;;;;;;;4997806;28;7128;-89
2022/11/10 17:19:39;;;;;;;;;;;;;;;;;;4998588;28;7032;-89
2022/11/10 17:22:05;;;;;;;;;;;;;;;;;;4999294;28;8454;-87
2022/11/10 17:24:30;;;;;;;;;;;;;;;;;;5003297;28;8916;-88